sensor_id;sensor_type;location;lat;lon;timestamp;pressure;altitude;pressure_sealevel;temperature;humidity
51249;BME280;39642;47.556;18.728;2023-02-08T00:00:24;101827.25;;;21.70;21.10
51249;BME280;39642;47.556;18.728;2023-02-08T00:02:51;101829.00;;;21.71;20.97
51249;BME280;39642;47.556;18.728;2023-02-08T00:05:17;101836.03;;;21.72;20.96
51249;BME280;39642;47.556;18.728;2023-02-08T00:07:43;101830.72;;;21.72;21.24
51249;BME280;39642;47.556;18.728;2023-02-08T00:10:10;101839.53;;;21.72;20.93
51249;BME280;39642;47.556;18.728;2023-02-08T00:12:37;101833.34;;;21.73;20.90
51249;BME280;39642;47.556;18.728;2023-02-08T00:15:03;101836.84;;;21.74;20.94
51249;BME280;39642;47.556;18.728;2023-02-08T00:17:29;101834.19;;;21.74;20.93
51249;BME280;39642;47.556;18.728;2023-02-08T00:19:55;101846.53;;;21.75;20.94
51249;BME280;39642;47.556;18.728;2023-02-08T00:22:22;101845.66;;;21.74;20.94
51249;BME280;39642;47.556;18.728;2023-02-08T00:24:49;101852.72;;;21.75;20.99
51249;BME280;39642;47.556;18.728;2023-02-08T00:27:16;101853.56;;;21.76;21.02
51249;BME280;39642;47.556;18.728;2023-02-08T00:29:42;101849.12;;;21.76;21.03
51249;BME280;39642;47.556;18.728;2023-02-08T00:32:08;101851.81;;;21.75;21.09
51249;BME280;39642;47.556;18.728;2023-02-08T00:34:36;101858.03;;;21.75;21.51
51249;BME280;39642;47.556;18.728;2023-02-08T00:37:02;101860.66;;;21.75;21.36
51249;BME280;39642;47.556;18.728;2023-02-08T00:39:27;101857.13;;;21.75;21.54
51249;BME280;39642;47.556;18.728;2023-02-08T00:41:53;101855.41;;;21.74;21.95
51249;BME280;39642;47.556;18.728;2023-02-08T00:44:19;101859.84;;;21.73;21.88
51249;BME280;39642;47.556;18.728;2023-02-08T00:46:45;101864.25;;;21.73;21.75
51249;BME280;39642;47.556;18.728;2023-02-08T00:49:11;101867.84;;;21.72;21.80
51249;BME280;39642;47.556;18.728;2023-02-08T00:51:37;101869.62;;;21.71;21.92
51249;BME280;39642;47.556;18.728;2023-02-08T00:54:03;101861.72;;;21.70;21.66
51249;BME280;39642;47.556;18.728;2023-02-08T00:56:29;101859.06;;;21.70;22.22
51249;BME280;39642;47.556;18.728;2023-02-08T00:58:54;101848.50;;;21.68;22.44
51249;BME280;39642;47.556;18.728;2023-02-08T01:01:20;101852.94;;;21.68;22.57
51249;BME280;39642;47.556;18.728;2023-02-08T01:03:46;101853.87;;;21.67;22.30
51249;BME280;39642;47.556;18.728;2023-02-08T01:06:16;101857.41;;;21.66;21.97
51249;BME280;39642;47.556;18.728;2023-02-08T01:08:42;101854.75;;;21.66;21.97
51249;BME280;39642;47.556;18.728;2023-02-08T01:11:14;101854.75;;;21.66;21.48
51249;BME280;39642;47.556;18.728;2023-02-08T01:13:40;101853.03;;;21.65;21.78
51249;BME280;39642;47.556;18.728;2023-02-08T01:16:19;101850.37;;;21.65;21.40
51249;BME280;39642;47.556;18.728;2023-02-08T01:18:47;101854.75;;;21.66;21.40
51249;BME280;39642;47.556;18.728;2023-02-08T01:21:16;101861.00;;;21.65;21.32
51249;BME280;39642;47.556;18.728;2023-02-08T01:23:43;101853.91;;;21.65;21.41
51249;BME280;39642;47.556;18.728;2023-02-08T01:26:10;101859.16;;;21.67;21.89
51249;BME280;39642;47.556;18.728;2023-02-08T01:28:37;101845.06;;;21.66;21.58
51249;BME280;39642;47.556;18.728;2023-02-08T01:31:10;101843.19;;;21.68;21.36
51249;BME280;39642;47.556;18.728;2023-02-08T01:33:36;101852.94;;;21.68;21.15
51249;BME280;39642;47.556;18.728;2023-02-08T01:36:03;101852.94;;;21.68;21.15
51249;BME280;39642;47.556;18.728;2023-02-08T01:38:30;101855.59;;;21.68;21.13
51249;BME280;39642;47.556;18.728;2023-02-08T01:40:56;101857.28;;;21.70;21.04
51249;BME280;39642;47.556;18.728;2023-02-08T01:43:31;101857.28;;;21.70;20.97
51249;BME280;39642;47.556;18.728;2023-02-08T01:45:57;101864.31;;;21.71;20.97
51249;BME280;39642;47.556;18.728;2023-02-08T01:48:29;101864.25;;;21.73;20.93
51249;BME280;39642;47.556;18.728;2023-02-08T01:50:57;101858.94;;;21.73;20.84
51249;BME280;39642;47.556;18.728;2023-02-08T01:53:25;101863.34;;;21.74;20.90
51249;BME280;39642;47.556;18.728;2023-02-08T01:55:55;101858.03;;;21.75;20.82
51249;BME280;39642;47.556;18.728;2023-02-08T01:58:24;101853.63;;;21.74;20.94
51249;BME280;39642;47.556;18.728;2023-02-08T02:00:52;101849.16;;;21.75;20.78
51249;BME280;39642;47.556;18.728;2023-02-08T02:03:19;101844.75;;;21.75;20.83
51249;BME280;39642;47.556;18.728;2023-02-08T02:05:50;101848.28;;;21.76;20.82
51249;BME280;39642;47.556;18.728;2023-02-08T02:08:17;101848.28;;;21.76;20.89
51249;BME280;39642;47.556;18.728;2023-02-08T02:10:43;101841.22;;;21.75;20.86
51249;BME280;39642;47.556;18.728;2023-02-08T02:13:12;101842.09;;;21.75;20.92
51249;BME280;39642;47.556;18.728;2023-02-08T02:15:39;101854.47;;;21.75;21.04
51249;BME280;39642;47.556;18.728;2023-02-08T02:18:07;101860.66;;;21.75;21.57
51249;BME280;39642;47.556;18.728;2023-02-08T02:20:48;101855.41;;;21.74;21.39
51249;BME280;39642;47.556;18.728;2023-02-08T02:31:32;101841.31;;;21.72;21.97
51249;BME280;39642;47.556;18.728;2023-02-08T02:42:21;101856.44;;;21.68;22.11
51249;BME280;39642;47.556;18.728;2023-02-08T02:45:25;101858.22;;;21.68;22.23
51249;BME280;39642;47.556;18.728;2023-02-08T02:50:47;101860.06;;;21.66;22.29
51249;BME280;39642;47.556;18.728;2023-02-08T02:55:46;101870.66;;;21.66;21.75
51249;BME280;39642;47.556;18.728;2023-02-08T02:58:15;101873.31;;;21.66;21.94
51249;BME280;39642;47.556;18.728;2023-02-08T03:00:42;101867.16;;;21.65;21.99
51249;BME280;39642;47.556;18.728;2023-02-08T03:03:16;101865.38;;;21.66;21.25
51249;BME280;39642;47.556;18.728;2023-02-08T03:05:46;101868.03;;;21.66;21.17
51249;BME280;39642;47.556;18.728;2023-02-08T03:11:25;101880.31;;;21.68;20.92
51249;BME280;39642;47.556;18.728;2023-02-08T03:19:21;101878.47;;;21.70;20.79
51249;BME280;39642;47.556;18.728;2023-02-08T03:21:54;101887.31;;;21.71;20.79
51249;BME280;39642;47.556;18.728;2023-02-08T03:27:33;101879.31;;;21.72;20.74
51249;BME280;39642;47.556;18.728;2023-02-08T03:30:28;101883.75;;;21.72;20.73
51249;BME280;39642;47.556;18.728;2023-02-08T03:35:40;101892.50;;;21.75;20.80
51249;BME280;39642;47.556;18.728;2023-02-08T03:38:14;101900.44;;;21.75;20.72
51249;BME280;39642;47.556;18.728;2023-02-08T03:40:42;101902.19;;;21.75;20.71
51249;BME280;39642;47.556;18.728;2023-02-08T03:43:29;101896.00;;;21.76;20.78
51249;BME280;39642;47.556;18.728;2023-02-08T03:46:12;101901.31;;;21.76;20.82
51249;BME280;39642;47.556;18.728;2023-02-08T03:48:45;101911.91;;;21.76;20.80
51249;BME280;39642;47.556;18.728;2023-02-08T03:51:14;101905.75;;;21.75;21.08
51249;BME280;39642;47.556;18.728;2023-02-08T03:53:43;101904.84;;;21.75;21.38
51249;BME280;39642;47.556;18.728;2023-02-08T03:56:17;101908.41;;;21.75;21.66
51249;BME280;39642;47.556;18.728;2023-02-08T03:58:57;101904.84;;;21.75;21.70
51249;BME280;39642;47.556;18.728;2023-02-08T04:01:42;101908.44;;;21.74;21.42
51249;BME280;39642;47.556;18.728;2023-02-08T04:04:10;101911.97;;;21.73;21.66
51249;BME280;39642;47.556;18.728;2023-02-08T04:06:37;101910.25;;;21.72;22.08
51249;BME280;39642;47.556;18.728;2023-02-08T04:09:02;101914.72;;;21.71;21.85
51249;BME280;39642;47.556;18.728;2023-02-08T04:11:28;101915.59;;;21.70;21.73
51249;BME280;39642;47.556;18.728;2023-02-08T04:13:54;101918.31;;;21.69;21.75
51249;BME280;39642;47.556;18.728;2023-02-08T04:16:20;101912.13;;;21.68;21.96
51249;BME280;39642;47.556;18.728;2023-02-08T04:18:46;101908.59;;;21.68;22.30
51249;BME280;39642;47.556;18.728;2023-02-08T04:21:12;101898.94;;;21.67;22.29
51249;BME280;39642;47.556;18.728;2023-02-08T04:23:38;101895.44;;;21.66;21.88
51249;BME280;39642;47.556;18.728;2023-02-08T04:26:04;101895.47;;;21.65;22.10
51249;BME280;39642;47.556;18.728;2023-02-08T04:28:32;101886.56;;;21.66;21.41
51249;BME280;39642;47.556;18.728;2023-02-08T04:30:58;101888.38;;;21.65;21.24
51249;BME280;39642;47.556;18.728;2023-02-08T04:33:24;101891.00;;;21.65;21.35
51249;BME280;39642;47.556;18.728;2023-02-08T04:35:49;101887.50;;;21.65;21.19
51249;BME280;39642;47.556;18.728;2023-02-08T04:38:16;101888.41;;;21.63;21.03
51249;BME280;39642;47.556;18.728;2023-02-08T04:40:42;101892.81;;;21.65;21.03
51249;BME280;39642;47.556;18.728;2023-02-08T04:43:08;101890.19;;;21.63;21.00
51249;BME280;39642;47.556;18.728;2023-02-08T04:45:33;101902.56;;;21.64;21.07
51249;BME280;39642;47.556;18.728;2023-02-08T04:48:00;101901.66;;;21.63;21.40
51249;BME280;39642;47.556;18.728;2023-02-08T04:50:26;101894.59;;;21.64;21.38
51249;BME280;39642;47.556;18.728;2023-02-08T04:52:52;101894.59;;;21.64;21.04
51249;BME280;39642;47.556;18.728;2023-02-08T04:55:18;101898.09;;;21.65;21.06
51249;BME280;39642;47.556;18.728;2023-02-08T04:57:44;101893.69;;;21.63;21.06
51249;BME280;39642;47.556;18.728;2023-02-08T05:00:10;101896.34;;;21.63;21.42
51249;BME280;39642;47.556;18.728;2023-02-08T05:02:37;101900.75;;;21.65;21.03
51249;BME280;39642;47.556;18.728;2023-02-08T05:05:04;101906.97;;;21.63;20.88
51249;BME280;39642;47.556;18.728;2023-02-08T05:07:30;101909.56;;;21.65;20.98
51249;BME280;39642;47.556;18.728;2023-02-08T05:09:56;101908.72;;;21.65;20.82
51249;BME280;39642;47.556;18.728;2023-02-08T05:12:21;101905.13;;;21.66;20.70
51249;BME280;39642;47.556;18.728;2023-02-08T05:14:47;101906.88;;;21.67;20.80
51249;BME280;39642;47.556;18.728;2023-02-08T05:17:13;101909.53;;;21.67;20.75
51249;BME280;39642;47.556;18.728;2023-02-08T05:19:39;101913.06;;;21.67;20.73
51249;BME280;39642;47.556;18.728;2023-02-08T05:22:05;101913.91;;;21.68;20.92
51249;BME280;39642;47.556;18.728;2023-02-08T05:24:31;101910.38;;;21.69;20.69
51249;BME280;39642;47.556;18.728;2023-02-08T05:26:57;101916.53;;;21.69;20.68
51249;BME280;39642;47.556;18.728;2023-02-08T05:29:23;101922.66;;;21.71;20.66
51249;BME280;39642;47.556;18.728;2023-02-08T05:31:49;101926.16;;;21.72;20.72
51249;BME280;39642;47.556;18.728;2023-02-08T05:34:15;101929.66;;;21.74;20.67
51249;BME280;39642;47.556;18.728;2023-02-08T05:36:40;101938.47;;;21.74;20.68
51249;BME280;39642;47.556;18.728;2023-02-08T05:39:06;101941.97;;;21.75;20.79
51249;BME280;39642;47.556;18.728;2023-02-08T05:41:32;101938.44;;;21.76;20.92
51249;BME280;39642;47.556;18.728;2023-02-08T05:43:58;101938.44;;;21.76;21.02
51249;BME280;39642;47.556;18.728;2023-02-08T05:46:24;101946.38;;;21.76;21.46
51249;BME280;39642;47.556;18.728;2023-02-08T05:48:50;101948.09;;;21.77;22.24
51249;BME280;39642;47.556;18.728;2023-02-08T05:51:16;101948.94;;;21.79;22.02
51249;BME280;39642;47.556;18.728;2023-02-08T05:53:41;101941.84;;;21.79;21.57
51249;BME280;39642;47.556;18.728;2023-02-08T05:56:08;101932.16;;;21.78;21.51
51249;BME280;39642;47.556;18.728;2023-02-08T05:58:34;101944.50;;;21.79;21.56
51249;BME280;39642;47.556;18.728;2023-02-08T06:01:00;101940.94;;;21.80;21.65
51249;BME280;39642;47.556;18.728;2023-02-08T06:03:26;101938.28;;;21.80;21.93
51249;BME280;39642;47.556;18.728;2023-02-08T06:05:52;101944.47;;;21.81;21.82
51249;BME280;39642;47.556;18.728;2023-02-08T06:08:18;101940.00;;;21.81;21.92
51249;BME280;39642;47.556;18.728;2023-02-08T06:10:47;101938.25;;;21.82;21.90
51249;BME280;39642;47.556;18.728;2023-02-08T06:13:13;101947.97;;;21.81;22.15
51249;BME280;39642;47.556;18.728;2023-02-08T06:15:40;101937.38;;;21.81;22.63
51249;BME280;39642;47.556;18.728;2023-02-08T06:18:06;101942.63;;;21.83;22.18
51249;BME280;39642;47.556;18.728;2023-02-08T06:20:33;101945.28;;;21.83;22.34
51249;BME280;39642;47.556;18.728;2023-02-08T06:22:59;101955.03;;;21.82;22.08
51249;BME280;39642;47.556;18.728;2023-02-08T06:25:26;101960.25;;;21.84;22.21
51249;BME280;39642;47.556;18.728;2023-02-08T06:27:52;101958.44;;;21.86;22.37
51249;BME280;39642;47.556;18.728;2023-02-08T06:30:18;101966.41;;;21.86;23.06
51249;BME280;39642;47.556;18.728;2023-02-08T06:32:44;101955.75;;;21.88;23.26
51249;BME280;39642;47.556;18.728;2023-02-08T06:35:09;101970.81;;;21.87;24.89
51249;BME280;39642;47.556;18.728;2023-02-08T06:37:35;101965.56;;;21.84;23.81
51249;BME280;39642;47.556;18.728;2023-02-08T06:40:03;101964.66;;;21.85;24.67
51249;BME280;39642;47.556;18.728;2023-02-08T06:42:29;101973.50;;;21.86;25.08
51249;BME280;39642;47.556;18.728;2023-02-08T06:44:55;101967.38;;;21.83;23.96
51249;BME280;39642;47.556;18.728;2023-02-08T06:47:23;101971.91;;;21.80;23.65
51249;BME280;39642;47.556;18.728;2023-02-08T06:49:50;101965.72;;;21.79;23.32
51249;BME280;39642;47.556;18.728;2023-02-08T06:52:17;101970.16;;;21.79;21.44
51249;BME280;39642;47.556;18.728;2023-02-08T06:54:43;101973.09;;;21.68;21.59
51249;BME280;39642;47.556;18.728;2023-02-08T06:57:09;101975.81;;;21.67;22.59
51249;BME280;39642;47.556;18.728;2023-02-08T06:59:38;101977.62;;;21.66;24.26
51249;BME280;39642;47.556;18.728;2023-02-08T07:02:04;101970.53;;;21.67;21.68
51249;BME280;39642;47.556;18.728;2023-02-08T07:04:30;101977.50;;;21.69;21.98
51249;BME280;39642;47.556;18.728;2023-02-08T07:06:56;101974.00;;;21.69;22.09
51249;BME280;39642;47.556;18.728;2023-02-08T07:09:22;101977.47;;;21.71;21.72
51249;BME280;39642;47.556;18.728;2023-02-08T07:11:48;101980.94;;;21.73;21.74
51249;BME280;39642;47.556;18.728;2023-02-08T07:14:14;101981.72;;;21.76;21.81
51249;BME280;39642;47.556;18.728;2023-02-08T07:16:41;101985.19;;;21.78;21.91
51249;BME280;39642;47.556;18.728;2023-02-08T07:19:07;101989.53;;;21.81;22.05
51249;BME280;39642;47.556;18.728;2023-02-08T07:21:33;101995.66;;;21.83;23.47
51249;BME280;39642;47.556;18.728;2023-02-08T07:23:58;101991.19;;;21.85;22.22
51249;BME280;39642;47.556;18.728;2023-02-08T07:26:24;101996.50;;;21.85;22.24
51249;BME280;39642;47.556;18.728;2023-02-08T07:28:50;101999.97;;;21.87;22.20
51249;BME280;39642;47.556;18.728;2023-02-08T07:31:16;101999.87;;;21.90;22.23
51249;BME280;39642;47.556;18.728;2023-02-08T07:33:43;102002.47;;;21.93;22.14
51249;BME280;39642;47.556;18.728;2023-02-08T07:36:09;102007.62;;;21.98;22.04
51249;BME280;39642;47.556;18.728;2023-02-08T07:38:36;102006.59;;;22.02;21.91
51249;BME280;39642;47.556;18.728;2023-02-08T07:41:05;102011.84;;;22.05;21.85
51249;BME280;39642;47.556;18.728;2023-02-08T07:43:33;102006.37;;;22.10;21.76
51249;BME280;39642;47.556;18.728;2023-02-08T07:46:05;102009.87;;;22.12;21.81
51249;BME280;39642;47.556;18.728;2023-02-08T07:48:31;102024.84;;;22.13;21.99
51249;BME280;39642;47.556;18.728;2023-02-08T07:50:57;102016.84;;;22.14;22.18
51249;BME280;39642;47.556;18.728;2023-02-08T07:53:23;102023.97;;;22.14;23.62
51249;BME280;39642;47.556;18.728;2023-02-08T07:55:49;102019.50;;;22.14;23.07
51249;BME280;39642;47.556;18.728;2023-02-08T07:58:15;102026.41;;;22.20;23.94
51249;BME280;39642;47.556;18.728;2023-02-08T08:00:41;102031.72;;;22.20;22.84
51249;BME280;39642;47.556;18.728;2023-02-08T08:03:06;102036.16;;;22.19;23.75
51249;BME280;39642;47.556;18.728;2023-02-08T08:05:33;102032.66;;;22.19;23.38
51249;BME280;39642;47.556;18.728;2023-02-08T08:07:59;102036.22;;;22.18;23.28
51249;BME280;39642;47.556;18.728;2023-02-08T08:10:24;102037.09;;;22.18;23.00
51249;BME280;39642;47.556;18.728;2023-02-08T08:12:50;102039.75;;;22.18;22.80
51249;BME280;39642;47.556;18.728;2023-02-08T08:15:16;102039.75;;;22.18;22.98
51249;BME280;39642;47.556;18.728;2023-02-08T08:17:42;102039.66;;;22.20;22.88
51249;BME280;39642;47.556;18.728;2023-02-08T08:20:09;102043.22;;;22.20;23.03
51249;BME280;39642;47.556;18.728;2023-02-08T08:22:36;102049.38;;;22.21;23.09
51249;BME280;39642;47.556;18.728;2023-02-08T08:25:02;102041.44;;;22.22;23.00
51249;BME280;39642;47.556;18.728;2023-02-08T08:27:28;102033.47;;;22.22;23.05
51249;BME280;39642;47.556;18.728;2023-02-08T08:29:54;102043.13;;;22.25;23.07
51249;BME280;39642;47.556;18.728;2023-02-08T08:32:20;102044.84;;;22.26;23.13
51249;BME280;39642;47.556;18.728;2023-02-08T08:34:45;102053.72;;;22.25;23.20
51249;BME280;39642;47.556;18.728;2023-02-08T08:37:11;102047.53;;;22.24;23.25
51249;BME280;39642;47.556;18.728;2023-02-08T08:39:37;102052.84;;;22.24;23.36
51249;BME280;39642;47.556;18.728;2023-02-08T08:42:03;102055.50;;;22.24;23.82
51249;BME280;39642;47.556;18.728;2023-02-08T08:44:30;102056.38;;;22.25;24.04
51249;BME280;39642;47.556;18.728;2023-02-08T08:46:57;102057.28;;;22.24;23.98
51249;BME280;39642;47.556;18.728;2023-02-08T08:49:24;102055.56;;;22.23;24.22
51249;BME280;39642;47.556;18.728;2023-02-08T08:51:50;102055.56;;;22.23;24.22
51249;BME280;39642;47.556;18.728;2023-02-08T08:54:17;102058.22;;;22.23;23.82
51249;BME280;39642;47.556;18.728;2023-02-08T08:56:43;102062.59;;;22.24;24.19
51249;BME280;39642;47.556;18.728;2023-02-08T08:59:09;102059.91;;;22.26;24.96
51249;BME280;39642;47.556;18.728;2023-02-08T09:01:35;102068.72;;;22.26;24.89
51249;BME280;39642;47.556;18.728;2023-02-08T09:04:01;102064.25;;;22.28;25.37
51249;BME280;39642;47.556;18.728;2023-02-08T09:06:27;102064.34;;;22.25;25.08
51249;BME280;39642;47.556;18.728;2023-02-08T09:08:52;102064.34;;;22.25;24.33
51249;BME280;39642;47.556;18.728;2023-02-08T09:11:18;102074.91;;;22.27;24.53
51249;BME280;39642;47.556;18.728;2023-02-08T09:13:45;102066.91;;;22.28;24.83
51249;BME280;39642;47.556;18.728;2023-02-08T09:16:16;102075.72;;;22.29;25.10
51249;BME280;39642;47.556;18.728;2023-02-08T09:18:43;102077.47;;;22.30;25.52
51249;BME280;39642;47.556;18.728;2023-02-08T09:21:14;102083.75;;;22.27;26.40
51249;BME280;39642;47.556;18.728;2023-02-08T09:23:40;102081.84;;;22.31;27.00
51249;BME280;39642;47.556;18.728;2023-02-08T09:26:09;102083.63;;;22.32;26.74
51249;BME280;39642;47.556;18.728;2023-02-08T09:28:36;102088.00;;;22.33;26.80
51249;BME280;39642;47.556;18.728;2023-02-08T09:31:09;102086.19;;;22.33;26.59
51249;BME280;39642;47.556;18.728;2023-02-08T09:33:36;102087.13;;;22.32;26.65
51249;BME280;39642;47.556;18.728;2023-02-08T09:36:02;102087.09;;;22.34;26.63
51249;BME280;39642;47.556;18.728;2023-02-08T09:38:29;102087.03;;;22.35;26.64
51249;BME280;39642;47.556;18.728;2023-02-08T09:43:44;102096.78;;;22.35;26.84
51249;BME280;39642;47.556;18.728;2023-02-08T09:46:20;102087.03;;;22.35;26.85
51249;BME280;39642;47.556;18.728;2023-02-08T09:48:49;102095.00;;;22.35;25.55
51249;BME280;39642;47.556;18.728;2023-02-08T09:56:33;102098.94;;;22.20;24.30
51249;BME280;39642;47.556;18.728;2023-02-08T09:59:01;102097.44;;;22.12;24.11
51249;BME280;39642;47.556;18.728;2023-02-08T10:01:30;102100.16;;;22.09;23.87
51249;BME280;39642;47.556;18.728;2023-02-08T10:04:03;102097.59;;;22.06;24.23
51249;BME280;39642;47.556;18.728;2023-02-08T10:06:30;102092.25;;;22.07;23.94
51249;BME280;39642;47.556;18.728;2023-02-08T10:08:59;102097.47;;;22.10;24.02
51249;BME280;39642;47.556;18.728;2023-02-08T10:11:54;102092.94;;;22.14;24.15
51249;BME280;39642;47.556;18.728;2023-02-08T10:20:02;102085.00;;;22.14;23.76
51249;BME280;39642;47.556;18.728;2023-02-08T10:25:26;102074.28;;;22.17;24.15
51249;BME280;39642;47.556;18.728;2023-02-08T10:34:02;102084.28;;;22.07;24.16
51249;BME280;39642;47.556;18.728;2023-02-08T10:36:34;102090.31;;;22.12;24.30
51249;BME280;39642;47.556;18.728;2023-02-08T10:39:18;102079.81;;;22.09;23.63
51249;BME280;39642;47.556;18.728;2023-02-08T10:41:47;102085.16;;;22.08;23.42
51249;BME280;39642;47.556;18.728;2023-02-08T10:49:41;102089.78;;;21.99;25.14
51249;BME280;39642;47.556;18.728;2023-02-08T10:52:09;102095.19;;;21.96;25.12
51249;BME280;39642;47.556;18.728;2023-02-08T10:54:35;102089.88;;;21.98;25.02
51249;BME280;39642;47.556;18.728;2023-02-08T10:57:04;102078.34;;;21.97;25.06
51249;BME280;39642;47.556;18.728;2023-02-08T10:59:46;102087.16;;;21.99;25.35
51249;BME280;39642;47.556;18.728;2023-02-08T11:02:22;102089.03;;;21.96;26.21
51249;BME280;39642;47.556;18.728;2023-02-08T11:05:21;102083.72;;;21.96;24.85
51249;BME280;39642;47.556;18.728;2023-02-08T11:08:14;102082.88;;;21.95;24.77
51249;BME280;39642;47.556;18.728;2023-02-08T11:10:45;102075.00;;;21.91;24.33
51249;BME280;39642;47.556;18.728;2023-02-08T11:13:20;102081.25;;;21.90;23.87
51249;BME280;39642;47.556;18.728;2023-02-08T11:15:57;102080.28;;;21.92;23.90
51249;BME280;39642;47.556;18.728;2023-02-08T11:18:30;102077.47;;;21.98;23.61
51249;BME280;39642;47.556;18.728;2023-02-08T11:21:05;102075.53;;;22.03;23.97
51249;BME280;39642;47.556;18.728;2023-02-08T11:23:36;102070.16;;;22.07;23.38
51249;BME280;39642;47.556;18.728;2023-02-08T11:26:31;102071.88;;;22.08;23.46
51249;BME280;39642;47.556;18.728;2023-02-08T11:31:38;102059.31;;;22.14;23.60
51249;BME280;39642;47.556;18.728;2023-02-08T11:34:10;102063.69;;;22.15;23.92
51249;BME280;39642;47.556;18.728;2023-02-08T11:36:42;102073.44;;;22.15;23.82
51249;BME280;39642;47.556;18.728;2023-02-08T11:39:22;102071.63;;;22.17;23.80
51249;BME280;39642;47.556;18.728;2023-02-08T11:41:54;102067.63;;;22.02;26.63
51249;BME280;39642;47.556;18.728;2023-02-08T11:44:29;102060.75;;;21.95;24.56
51249;BME280;39642;47.556;18.728;2023-02-08T11:46:58;102056.38;;;21.94;24.51
51249;BME280;39642;47.556;18.728;2023-02-08T11:49:31;102061.75;;;21.91;25.40
51249;BME280;39642;47.556;18.728;2023-02-08T11:52:00;102059.06;;;21.92;25.85
51249;BME280;39642;47.556;18.728;2023-02-08T11:54:35;102059.09;;;21.91;25.80
51249;BME280;39642;47.556;18.728;2023-02-08T11:57:20;102058.16;;;21.93;25.69
51249;BME280;39642;47.556;18.728;2023-02-08T11:59:49;102057.19;;;21.96;25.84
51249;BME280;39642;47.556;18.728;2023-02-08T12:02:36;102054.34;;;22.02;26.37
51249;BME280;39642;47.556;18.728;2023-02-08T12:05:09;102046.38;;;22.02;26.87
51249;BME280;39642;47.556;18.728;2023-02-08T12:18:27;102055.50;;;21.93;27.75
51249;BME280;39642;47.556;18.728;2023-02-08T12:21:04;102058.16;;;21.93;27.91
51249;BME280;39642;47.556;18.728;2023-02-08T12:23:48;102060.75;;;21.95;28.00
51249;BME280;39642;47.556;18.728;2023-02-08T12:37:02;102041.41;;;21.91;28.72
51249;BME280;39642;47.556;18.728;2023-02-08T12:40:31;102045.78;;;21.92;30.50
51249;BME280;39642;47.556;18.728;2023-02-08T12:43:45;102047.63;;;21.90;31.80
51249;BME280;39642;47.556;18.728;2023-02-08T12:58:13;102041.50;;;21.88;28.54
51249;BME280;39642;47.556;18.728;2023-02-08T13:00:45;102034.47;;;21.87;28.04
51249;BME280;39642;47.556;18.728;2023-02-08T13:05:53;102038.97;;;21.83;27.83
51249;BME280;39642;47.556;18.728;2023-02-08T13:08:54;102036.31;;;21.83;27.30
51249;BME280;39642;47.556;18.728;2023-02-08T13:12:13;102027.50;;;21.83;26.46
51249;BME280;39642;47.556;18.728;2023-02-08T13:14:41;102029.16;;;21.87;25.96
51249;BME280;39642;47.556;18.728;2023-02-08T13:17:27;102033.59;;;21.87;25.26
51249;BME280;39642;47.556;18.728;2023-02-08T13:20:14;102036.19;;;21.88;24.84
51249;BME280;39642;47.556;18.728;2023-02-08T13:22:43;102035.28;;;21.89;24.96
51249;BME280;39642;47.556;18.728;2023-02-08T13:25:15;102034.47;;;21.87;25.17
51249;BME280;39642;47.556;18.728;2023-02-08T13:27:46;102037.94;;;21.89;25.01
51249;BME280;39642;47.556;18.728;2023-02-08T13:30:19;102039.84;;;21.84;24.88
51249;BME280;39642;47.556;18.728;2023-02-08T13:32:48;102023.06;;;21.83;24.17
51249;BME280;39642;47.556;18.728;2023-02-08T13:35:24;102026.66;;;21.81;26.61
51249;BME280;39642;47.556;18.728;2023-02-08T13:38:38;102030.31;;;21.77;26.47
51249;BME280;39642;47.556;18.728;2023-02-08T13:40:44;102026.97;;;21.70;26.56
51249;BME280;39642;47.556;18.728;2023-02-08T13:43:31;102029.72;;;21.67;25.18
51249;BME280;39642;47.556;18.728;2023-02-08T13:45:59;102034.09;;;21.68;25.49
51249;BME280;39642;47.556;18.728;2023-02-08T13:48:26;102036.69;;;21.71;27.47
51249;BME280;39642;47.556;18.728;2023-02-08T13:51:04;102044.56;;;21.73;27.82
51249;BME280;39642;47.556;18.728;2023-02-08T13:59:03;102034.78;;;21.75;28.72
51249;BME280;39642;47.556;18.728;2023-02-08T14:04:34;102037.44;;;21.75;28.39
51249;BME280;39642;47.556;18.728;2023-02-08T14:09:42;102029.50;;;21.75;28.35
51249;BME280;39642;47.556;18.728;2023-02-08T14:14:41;102025.97;;;21.74;28.25
51249;BME280;39642;47.556;18.728;2023-02-08T14:17:22;102027.78;;;21.72;28.02
51249;BME280;39642;47.556;18.728;2023-02-08T14:20:35;102031.28;;;21.74;27.99
51249;BME280;39642;47.556;18.728;2023-02-08T14:23:18;102026.84;;;21.75;27.62
51249;BME280;39642;47.556;18.728;2023-02-08T14:25:48;102026.69;;;21.79;27.41
51249;BME280;39642;47.556;18.728;2023-02-08T14:30:53;102022.03;;;21.89;28.35
51249;BME280;39642;47.556;18.728;2023-02-08T14:33:24;102030.72;;;21.94;28.51
51249;BME280;39642;47.556;18.728;2023-02-08T14:35:55;102022.66;;;21.97;27.57
51249;BME280;39642;47.556;18.728;2023-02-08T14:45:53;102026.81;;;22.06;28.33
51249;BME280;39642;47.556;18.728;2023-02-08T14:48:25;102025.06;;;22.07;28.82
51249;BME280;39642;47.556;18.728;2023-02-08T14:53:43;102027.72;;;22.07;29.48
51249;BME280;39642;47.556;18.728;2023-02-08T14:59:14;102034.75;;;22.08;29.15
51249;BME280;39642;47.556;18.728;2023-02-08T15:01:42;102028.50;;;22.09;28.87
51249;BME280;39642;47.556;18.728;2023-02-08T15:04:11;102031.16;;;22.09;28.52
51249;BME280;39642;47.556;18.728;2023-02-08T15:06:42;102039.13;;;22.09;28.39